Time,TemperatureF,DewpointF,PressureIn,WindDirection,WindDirectionDegrees,WindSpeedMPH,WindSpeedGustMPH,Humidity,HourlyPrecipIn,Conditions,Clouds,dailyrainin,SoftwareType,DateUTC
2013-09-28 00:08:00,58.5,51.0,30.06,East,101,0.0,-999.0,75,-99.99,,,0.00,weatherlink.com 1.10,2013-09-28 04:08:00,
2013-09-28 00:23:00,58.0,50.0,30.05,East,101,0.0,-999.0,76,-99.99,,,0.00,weatherlink.com 1.10,2013-09-28 04:23:00,
2013-09-28 00:39:00,56.9,50.0,30.05,East,101,0.0,-999.0,79,-99.99,,,0.00,weatherlink.com 1.10,2013-09-28 04:39:00,
2013-09-28 00:54:00,56.3,50.0,30.05,East,101,0.0,-999.0,79,-99.99,,,0.00,weatherlink.com 1.10,2013-09-28 04:54:00,
2013-09-28 01:09:00,55.9,50.0,30.05,East,101,0.0,-999.0,80,-99.99,,,0.00,weatherlink.com 1.10,2013-09-28 05:09:00,
2013-09-28 01:24:00,56.0,50.0,30.05,East,101,0.0,-999.0,81,-99.99,,,0.00,weatherlink.com 1.10,2013-09-28 05:24:00,
2013-09-28 01:39:00,56.1,50.0,30.05,East,101,0.0,-999.0,81,-99.99,,,0.00,weatherlink.com 1.10,2013-09-28 05:39:00,
2013-09-28 01:54:00,56.3,50.0,30.05,East,101,0.0,-999.0,80,-99.99,,,0.00,weatherlink.com 1.10,2013-09-28 05:54:00,
2013-09-28 02:09:00,56.1,50.0,30.05,East,101,0.0,-999.0,81,-99.99,,,0.00,weatherlink.com 1.10,2013-09-28 06:09:00,
2013-09-28 02:24:00,55.8,50.0,30.05,East,101,0.0,-999.0,82,-99.99,,,0.00,weatherlink.com 1.10,2013-09-28 06:24:00,
2013-09-28 02:39:00,55.6,50.0,30.06,East,101,0.0,-999.0,82,-99.99,,,0.00,weatherlink.com 1.10,2013-09-28 06:39:00,
2013-09-28 02:54:00,55.3,50.0,30.05,East,101,0.0,-999.0,83,-99.99,,,0.00,weatherlink.com 1.10,2013-09-28 06:54:00,
2013-09-28 03:09:00,55.2,50.0,30.05,East,101,0.0,-999.0,83,-99.99,,,0.00,weatherlink.com 1.10,2013-09-28 07:09:00,
2013-09-28 03:24:00,54.7,50.0,30.05,East,101,0.0,-999.0,84,-99.99,,,0.00,weatherlink.com 1.10,2013-09-28 07:24:00,
2013-09-28 03:39:00,54.4,50.0,30.05,East,101,0.0,-999.0,85,-99.99,,,0.00,weatherlink.com 1.10,2013-09-28 07:39:00,
2013-09-28 03:54:00,54.2,50.0,30.05,East,101,0.0,-999.0,86,-99.99,,,0.00,weatherlink.com 1.10,2013-09-28 07:54:00,
2013-09-28 04:09:00,54.3,50.0,30.05,East,101,0.0,-999.0,86,-99.99,,,0.00,weatherlink.com 1.10,2013-09-28 08:09:00,
2013-09-28 04:24:00,54.1,50.0,30.05,East,101,0.0,-999.0,87,-99.99,,,0.00,weatherlink.com 1.10,2013-09-28 08:24:00,
2013-09-28 04:39:00,54.1,50.0,30.05,East,101,0.0,-999.0,87,-99.99,,,0.00,weatherlink.com 1.10,2013-09-28 08:39:00,
2013-09-28 04:54:00,54.2,51.0,30.05,East,101,0.0,-999.0,88,-99.99,,,0.00,weatherlink.com 1.10,2013-09-28 08:54:00,
2013-09-28 05:09:00,54.2,51.0,30.05,East,101,0.0,-999.0,88,-99.99,,,0.00,weatherlink.com 1.10,2013-09-28 09:09:00,
2013-09-28 05:24:00,54.1,51.0,30.05,East,101,1.0,-999.0,88,-99.99,,,0.00,weatherlink.com 1.10,2013-09-28 09:24:00,
2013-09-28 05:39:00,53.6,51.0,30.06,East,101,0.0,-999.0,89,-99.99,,,0.00,weatherlink.com 1.10,2013-09-28 09:39:00,
2013-09-28 05:54:00,53.5,51.0,30.07,East,101,0.0,-999.0,90,-99.99,,,0.00,weatherlink.com 1.10,2013-09-28 09:54:00,
2013-09-28 06:09:00,53.6,51.0,30.06,East,101,0.0,-999.0,91,-99.99,,,0.00,weatherlink.com 1.10,2013-09-28 10:09:00,
2013-09-28 06:24:00,53.7,51.0,30.07,East,101,0.0,-999.0,90,-99.99,,,0.00,weatherlink.com 1.10,2013-09-28 10:24:00,
2013-09-28 06:39:00,53.4,51.0,30.07,East,101,0.0,-999.0,90,-99.99,,,0.00,weatherlink.com 1.10,2013-09-28 10:39:00,
2013-09-28 06:54:00,53.3,51.0,30.07,East,101,1.0,-999.0,91,-99.99,,,0.00,weatherlink.com 1.10,2013-09-28 10:54:00,
2013-09-28 07:09:00,53.3,51.0,30.07,East,101,0.0,-999.0,91,-99.99,,,0.00,weatherlink.com 1.10,2013-09-28 11:09:00,
2013-09-28 07:24:00,53.5,51.0,30.08,East,101,0.0,-999.0,92,-99.99,,,0.00,weatherlink.com 1.10,2013-09-28 11:24:00,
2013-09-28 07:39:00,53.5,51.0,30.08,East,101,0.0,-999.0,91,-99.99,,,0.00,weatherlink.com 1.10,2013-09-28 11:39:00,
2013-09-28 07:54:00,53.4,51.0,30.09,East,101,0.0,-999.0,92,-99.99,,,0.00,weatherlink.com 1.10,2013-09-28 11:54:00,
2013-09-28 08:09:00,53.6,51.0,30.09,East,101,0.0,-999.0,92,-99.99,,,0.00,weatherlink.com 1.10,2013-09-28 12:09:00,
2013-09-28 08:24:00,53.9,52.0,30.09,East,101,0.0,-999.0,92,-99.99,,,0.00,weatherlink.com 1.10,2013-09-28 12:24:00,
2013-09-28 08:39:00,54.8,53.0,30.09,East,101,0.0,-999.0,93,-99.99,,,0.00,weatherlink.com 1.10,2013-09-28 12:39:00,
2013-09-28 08:54:00,57.3,55.0,30.09,SE,132,1.0,-999.0,91,-99.99,,,0.00,weatherlink.com 1.10,2013-09-28 12:54:00,
2013-09-28 09:09:00,59.5,56.0,30.09,SE,141,4.0,-999.0,87,-99.99,,,0.00,weatherlink.com 1.10,2013-09-28 13:09:00,
2013-09-28 09:24:00,61.5,57.0,30.09,SE,136,1.0,-999.0,84,-99.99,,,0.00,weatherlink.com 1.10,2013-09-28 13:24:00,
2013-09-28 09:39:00,63.8,58.0,30.09,SSW,192,4.0,-999.0,82,-99.99,,,0.00,weatherlink.com 1.10,2013-09-28 13:39:00,
2013-09-28 09:54:00,65.7,59.0,30.10,SSW,192,2.0,-999.0,79,-99.99,,,0.00,weatherlink.com 1.10,2013-09-28 13:54:00,
2013-09-28 10:10:00,67.7,60.0,30.10,South,184,1.0,-999.0,75,-99.99,,,0.00,weatherlink.com 1.10,2013-09-28 14:10:00,
2013-09-28 10:25:00,69.4,60.0,30.10,South,186,3.0,-999.0,72,-99.99,,,0.00,weatherlink.com 1.10,2013-09-28 14:25:00,
2013-09-28 10:40:00,70.8,60.0,30.09,SSW,194,4.0,-999.0,69,-99.99,,,0.00,weatherlink.com 1.10,2013-09-28 14:40:00,
2013-09-28 10:55:00,72.2,61.0,30.09,South,170,4.0,-999.0,67,-99.99,,,0.00,weatherlink.com 1.10,2013-09-28 14:55:00,
2013-09-28 11:10:00,73.5,61.0,30.09,South,179,5.0,-999.0,65,-99.99,,,0.00,weatherlink.com 1.10,2013-09-28 15:10:00,
2013-09-28 11:25:00,74.7,61.0,30.08,South,188,5.0,-999.0,63,-99.99,,,0.00,weatherlink.com 1.10,2013-09-28 15:25:00,
2013-09-28 11:40:00,76.0,61.0,30.07,SSW,209,8.0,-999.0,59,-99.99,,,0.00,weatherlink.com 1.10,2013-09-28 15:40:00,
2013-09-28 11:55:00,76.4,60.0,30.07,SSW,199,14.0,-999.0,58,-99.99,,,0.00,weatherlink.com 1.10,2013-09-28 15:55:00,
2013-09-28 12:10:00,77.1,61.0,30.06,SSW,192,9.0,-999.0,57,-99.99,,,0.00,weatherlink.com 1.10,2013-09-28 16:10:00,
2013-09-28 12:25:00,77.9,62.0,30.06,South,180,4.0,-999.0,58,-99.99,,,0.00,weatherlink.com 1.10,2013-09-28 16:25:00,
2013-09-28 12:40:00,78.7,61.0,30.05,South,189,8.0,-999.0,55,-99.99,,,0.00,weatherlink.com 1.10,2013-09-28 16:40:00,
2013-09-28 12:55:00,79.0,61.0,30.05,SW,219,6.0,-999.0,54,-99.99,,,0.00,weatherlink.com 1.10,2013-09-28 16:55:00,
2013-09-28 13:10:00,79.0,60.0,30.04,SW,217,7.0,-999.0,53,-99.99,,,0.00,weatherlink.com 1.10,2013-09-28 17:10:00,
2013-09-28 13:25:00,78.9,60.0,30.03,SSW,209,7.0,-999.0,52,-99.99,,,0.00,weatherlink.com 1.10,2013-09-28 17:25:00,
2013-09-28 13:40:00,79.7,59.0,30.02,SSW,202,12.0,-999.0,50,-99.99,,,0.00,weatherlink.com 1.10,2013-09-28 17:40:00,
2013-09-28 13:55:00,80.2,60.0,30.02,South,190,11.0,-999.0,51,-99.99,,,0.00,weatherlink.com 1.10,2013-09-28 17:55:00,
2013-09-28 14:10:00,80.4,60.0,30.01,WSW,238,11.0,-999.0,50,-99.99,,,0.00,weatherlink.com 1.10,2013-09-28 18:10:00,
2013-09-28 14:25:00,81.3,62.0,30.00,South,184,11.0,-999.0,52,-99.99,,,0.00,weatherlink.com 1.10,2013-09-28 18:25:00,
2013-09-28 14:40:00,81.1,60.0,30.00,SW,223,14.0,-999.0,49,-99.99,,,0.00,weatherlink.com 1.10,2013-09-28 18:40:00,
2013-09-28 14:55:00,81.1,59.0,29.99,SSW,200,9.0,-999.0,47,-99.99,,,0.00,weatherlink.com 1.10,2013-09-28 18:55:00,
2013-09-28 15:10:00,81.5,62.0,29.99,SSW,211,11.0,-999.0,51,-99.99,,,0.00,weatherlink.com 1.10,2013-09-28 19:10:00,
2013-09-28 15:26:00,81.6,61.0,29.98,South,184,4.0,-999.0,50,-99.99,,,0.00,weatherlink.com 1.10,2013-09-28 19:26:00,
2013-09-28 15:41:00,81.6,61.0,29.98,SSE,168,13.0,-999.0,49,-99.99,,,0.00,weatherlink.com 1.10,2013-09-28 19:41:00,
2013-09-28 15:56:00,82.0,62.0,29.97,SSE,163,12.0,-999.0,50,-99.99,,,0.00,weatherlink.com 1.10,2013-09-28 19:56:00,
2013-09-28 16:11:00,80.4,61.0,29.98,South,181,5.0,-999.0,52,-99.99,,,0.00,weatherlink.com 1.10,2013-09-28 20:11:00,
2013-09-28 16:26:00,80.9,60.0,29.97,SSW,193,11.0,-999.0,49,-99.99,,,0.00,weatherlink.com 1.10,2013-09-28 20:26:00,
2013-09-28 16:41:00,80.7,59.0,29.97,SSW,206,12.0,-999.0,48,-99.99,,,0.00,weatherlink.com 1.10,2013-09-28 20:41:00,
2013-09-28 16:56:00,82.0,58.0,29.96,SSW,202,9.0,-999.0,44,-99.99,,,0.00,weatherlink.com 1.10,2013-09-28 20:56:00,
2013-09-28 17:11:00,81.1,58.0,29.96,South,177,7.0,-999.0,46,-99.99,,,0.00,weatherlink.com 1.10,2013-09-28 21:11:00,
2013-09-28 17:26:00,81.3,58.0,29.96,SW,225,13.0,-999.0,45,-99.99,,,0.00,weatherlink.com 1.10,2013-09-28 21:26:00,
2013-09-28 17:41:00,80.9,58.0,29.96,SSW,212,12.0,-999.0,46,-99.99,,,0.00,weatherlink.com 1.10,2013-09-28 21:41:00,
2013-09-28 17:56:00,80.7,59.0,29.96,SSW,206,9.0,-999.0,47,-99.99,,,0.00,weatherlink.com 1.10,2013-09-28 21:56:00,
2013-09-28 18:11:00,80.4,59.0,29.96,South,191,7.0,-999.0,48,-99.99,,,0.00,weatherlink.com 1.10,2013-09-28 22:11:00,
2013-09-28 18:26:00,79.4,60.0,29.96,South,174,6.0,-999.0,51,-99.99,,,0.00,weatherlink.com 1.10,2013-09-28 22:26:00,
2013-09-28 18:41:00,79.2,61.0,29.95,South,186,5.0,-999.0,53,-99.99,,,0.00,weatherlink.com 1.10,2013-09-28 22:41:00,
2013-09-28 18:56:00,78.6,60.0,29.95,SSW,194,6.0,-999.0,54,-99.99,,,0.00,weatherlink.com 1.10,2013-09-28 22:56:00,
2013-09-28 19:11:00,77.1,61.0,29.95,SSW,192,4.0,-999.0,57,-99.99,,,0.00,weatherlink.com 1.10,2013-09-28 23:11:00,
2013-09-28 19:26:00,75.4,60.0,29.95,South,190,1.0,-999.0,60,-99.99,,,0.00,weatherlink.com 1.10,2013-09-28 23:26:00,
2013-09-28 19:41:00,73.7,60.0,29.95,South,190,0.0,-999.0,62,-99.99,,,0.00,weatherlink.com 1.10,2013-09-28 23:41:00,
2013-09-28 19:56:00,72.0,60.0,29.95,South,190,0.0,-999.0,65,-99.99,,,0.00,weatherlink.com 1.10,2013-09-28 23:56:00,
2013-09-28 20:11:00,70.9,59.0,29.95,South,190,0.0,-999.0,67,-99.99,,,0.00,weatherlink.com 1.10,2013-09-29 00:11:00,
2013-09-28 20:26:00,69.7,59.0,29.95,South,190,0.0,-999.0,69,-99.99,,,0.00,weatherlink.com 1.10,2013-09-29 00:26:00,
2013-09-28 20:41:00,68.8,59.0,29.96,South,190,0.0,-999.0,70,-99.99,,,0.00,weatherlink.com 1.10,2013-09-29 00:41:00,
2013-09-28 20:56:00,68.3,59.0,29.96,South,190,0.0,-999.0,71,-99.99,,,0.00,weatherlink.com 1.10,2013-09-29 00:56:00,
2013-09-28 21:11:00,67.3,59.0,29.95,South,190,0.0,-999.0,74,-99.99,,,0.00,weatherlink.com 1.10,2013-09-29 01:11:00,
2013-09-28 21:26:00,67.0,59.0,29.95,South,190,2.0,-999.0,76,-99.99,,,0.00,weatherlink.com 1.10,2013-09-29 01:26:00,
2013-09-28 21:41:00,67.3,60.0,29.95,South,190,1.0,-999.0,77,-99.99,,,0.00,weatherlink.com 1.10,2013-09-29 01:41:00,
2013-09-28 21:56:00,67.6,60.0,29.95,South,190,1.0,-999.0,76,-99.99,,,0.00,weatherlink.com 1.10,2013-09-29 01:56:00,
2013-09-28 22:11:00,67.8,60.0,29.96,South,190,3.0,-999.0,75,-99.99,,,0.00,weatherlink.com 1.10,2013-09-29 02:11:00,
2013-09-28 22:26:00,67.8,59.0,29.96,South,190,2.0,-999.0,74,-99.99,,,0.00,weatherlink.com 1.10,2013-09-29 02:26:00,
2013-09-28 22:41:00,67.6,59.0,29.96,South,190,2.0,-999.0,74,-99.99,,,0.00,weatherlink.com 1.10,2013-09-29 02:41:00,
2013-09-28 22:56:00,67.2,59.0,29.96,South,190,2.0,-999.0,75,-99.99,,,0.00,weatherlink.com 1.10,2013-09-29 02:56:00,
2013-09-28 23:11:00,67.3,59.0,29.96,South,190,1.0,-999.0,74,-99.99,,,0.00,weatherlink.com 1.10,2013-09-29 03:11:00,
2013-09-28 23:26:00,67.1,59.0,29.96,South,190,1.0,-999.0,74,-99.99,,,0.00,weatherlink.com 1.10,2013-09-29 03:26:00,
2013-09-28 23:41:00,67.0,58.0,29.96,South,190,1.0,-999.0,74,-99.99,,,0.00,weatherlink.com 1.10,2013-09-29 03:41:00,
2013-09-28 23:56:00,67.1,59.0,29.96,South,190,1.0,-999.0,74,-99.99,,,0.00,weatherlink.com 1.10,2013-09-29 03:56:00,